Time;durP1;ratioP1;P1;durP2;ratioP2;P2;SDS_P1;SDS_P2;PMS_P1;PMS_P2;Temp;Humidity;BMP_temperature;BMP_pressure;BME280_temperature;BME280_humidity;BME280_pressure;Samples;Min_cycle;Max_cycle;Signal;HPM_P1;HPM_P2
2022/10/28 00:02:24;;;;;;;8.18;3.88;;;20.00;99.90;;;;;;5025771;28;20200;-78
2022/10/28 00:04:52;;;;;;;11.68;3.95;;;20.10;99.90;;;;;;5038170;28;20207;-78
2022/10/28 00:07:19;;;;;;;9.82;3.65;;;20.10;99.90;;;;;;5021930;28;20223;-79
2022/10/28 00:09:48;;;;;;;10.57;4.18;;;20.10;99.90;;;;;;5021887;28;20201;-79
2022/10/28 00:12:15;;;;;;;7.25;3.65;;;20.20;99.90;;;;;;5027137;28;20590;-78
2022/10/28 00:14:43;;;;;;;8.55;3.80;;;20.10;99.90;;;;;;5044080;28;20211;-78
2022/10/28 00:17:10;;;;;;;7.35;3.63;;;20.20;99.90;;;;;;5025492;28;20227;-78
2022/10/28 00:19:38;;;;;;;5.07;3.50;;;20.30;99.90;;;;;;5022633;28;20220;-78
2022/10/28 00:22:05;;;;;;;6.95;3.65;;;20.20;99.90;;;;;;5024154;28;20203;-78
2022/10/28 00:24:32;;;;;;;7.40;4.00;;;20.20;99.90;;;;;;5021923;28;20195;-78
2022/10/28 00:27:01;;;;;;;7.90;3.88;;;20.30;99.90;;;;;;5025519;28;20227;-78
2022/10/28 00:29:30;;;;;;;6.38;3.72;;;20.30;99.90;;;;;;5025964;28;20203;-78
2022/10/28 00:31:58;;;;;;;8.02;3.83;;;20.30;99.90;;;;;;5020702;28;20548;-78
2022/10/28 00:34:25;;;;;;;9.77;4.13;;;20.30;99.90;;;;;;5029667;28;20207;-78
2022/10/28 00:36:52;;;;;;;13.15;4.00;;;20.30;99.90;;;;;;5027297;28;20227;-78
2022/10/28 00:39:22;;;;;;;11.23;3.85;;;20.30;99.90;;;;;;5025273;28;20219;-79
2022/10/28 00:41:51;;;;;;;6.80;3.60;;;20.30;99.90;;;;;;5025468;28;20210;-78
2022/10/28 00:44:47;;;;;;;8.77;3.95;;;20.30;99.90;;;;;;5026889;28;20203;-78
2022/10/28 00:47:18;;;;;;;6.03;3.33;;;20.30;99.90;;;;;;5027556;28;20223;-78
2022/10/28 00:49:47;;;;;;;12.82;3.85;;;20.30;99.90;;;;;;5031288;28;20195;-80
2022/10/28 00:52:18;;;;;;;8.63;4.03;;;20.30;99.90;;;;;;5045130;28;20200;-78
2022/10/28 00:54:46;;;;;;;5.53;3.53;;;20.30;99.90;;;;;;5031197;28;20187;-78
2022/10/28 00:57:16;;;;;;;8.02;3.67;;;20.30;99.90;;;;;;5028705;28;20233;-78
2022/10/28 00:59:49;;;;;;;8.05;3.58;;;20.30;99.90;;;;;;5023314;28;20219;-79
2022/10/28 01:02:18;;;;;;;10.48;3.67;;;20.30;99.90;;;;;;5029454;28;20203;-78
2022/10/28 01:04:47;;;;;;;8.13;3.33;;;20.30;99.90;;;;;;5030074;28;20207;-78
2022/10/28 01:07:16;;;;;;;8.38;3.85;;;20.30;99.90;;;;;;5031428;28;20235;-79
2022/10/28 01:09:43;;;;;;;6.88;3.40;;;20.40;99.90;;;;;;5029409;28;20206;-78
2022/10/28 01:12:20;;;;;;;8.30;3.80;;;20.30;99.90;;;;;;5027759;28;20210;-78
2022/10/28 01:15:04;;;;;;;7.15;3.20;;;20.30;99.90;;;;;;5027932;28;20194;-78
2022/10/28 01:17:44;;;;;;;6.53;3.58;;;20.40;99.90;;;;;;5029409;28;20230;-80
2022/10/28 01:20:53;;;;;;;8.23;3.47;;;20.40;99.90;;;;;;5031926;28;20212;-78
2022/10/28 01:23:30;;;;;;;9.70;3.90;;;20.40;99.90;;;;;;5049772;28;20198;-78
2022/10/28 01:26:23;;;;;;;6.78;3.15;;;20.40;99.90;;;;;;5029632;28;20219;-79
2022/10/28 01:29:14;;;;;;;8.23;3.60;;;20.40;99.90;;;;;;5026351;28;20210;-78
2022/10/28 01:31:45;;;;;;;7.28;3.83;;;20.40;99.90;;;;;;5023786;28;20196;-78
2022/10/28 01:34:20;;;;;;;5.75;3.42;;;20.50;99.90;;;;;;5035363;28;20206;-78
2022/10/28 01:36:57;;;;;;;8.13;3.25;;;20.50;99.90;;;;;;5030024;28;20214;-79
2022/10/28 01:39:33;;;;;;;7.18;3.50;;;20.40;99.90;;;;;;5022467;28;20223;-79
2022/10/28 01:42:09;;;;;;;6.65;3.55;;;20.40;99.90;;;;;;5043533;28;20200;-78
2022/10/28 01:44:45;;;;;;;7.30;3.67;;;20.40;99.90;;;;;;5024202;28;20218;-78
2022/10/28 01:47:22;;;;;;;8.73;3.70;;;20.40;99.90;;;;;;5029000;28;20230;-78
2022/10/28 01:49:54;;;;;;;7.82;3.65;;;20.50;99.90;;;;;;5029668;28;20194;-78
2022/10/28 01:52:25;;;;;;;9.55;3.40;;;20.50;99.90;;;;;;5030665;28;20657;-78
2022/10/28 01:55:06;;;;;;;7.07;3.25;;;20.50;99.90;;;;;;5031324;28;20203;-78
2022/10/28 01:57:35;;;;;;;6.68;3.63;;;20.50;99.90;;;;;;5022367;28;20230;-78
2022/10/28 02:00:05;;;;;;;11.10;3.78;;;20.50;99.90;;;;;;5027484;28;20215;-79
2022/10/28 02:02:42;;;;;;;7.82;3.33;;;20.50;99.90;;;;;;5034325;28;20194;-79
2022/10/28 02:05:36;;;;;;;10.40;3.13;;;20.60;99.90;;;;;;5022268;28;20206;-78
2022/10/28 02:08:19;;;;;;;5.93;3.10;;;20.60;99.90;;;;;;5029156;28;20206;-80
2022/10/28 02:10:56;;;;;;;8.68;3.78;;;20.60;99.90;;;;;;5024945;28;20194;-78
2022/10/28 02:13:32;;;;;;;6.57;2.97;;;20.60;99.90;;;;;;5025870;28;20199;-78
2022/10/28 02:16:07;;;;;;;6.65;3.45;;;20.60;99.90;;;;;;5024399;28;20222;-78
2022/10/28 02:18:46;;;;;;;8.02;3.42;;;20.60;99.90;;;;;;5020066;28;20206;-79
2022/10/28 02:21:21;;;;;;;9.65;3.55;;;20.60;99.90;;;;;;5025089;28;20227;-78
2022/10/28 02:23:53;;;;;;;6.15;3.35;;;20.70;99.90;;;;;;5020083;28;20205;-79
2022/10/28 02:26:26;;;;;;;7.30;3.55;;;20.60;99.90;;;;;;5025414;28;20229;-79
2022/10/28 02:29:02;;;;;;;7.15;3.63;;;20.60;99.90;;;;;;5025895;28;20206;-78
2022/10/28 02:31:34;;;;;;;10.10;3.28;;;20.60;99.90;;;;;;5042419;28;20199;-78
2022/10/28 02:34:06;;;;;;;10.10;3.65;;;20.60;99.90;;;;;;5022916;28;20569;-78
2022/10/28 02:36:39;;;;;;;6.72;3.38;;;20.50;99.90;;;;;;5028420;28;20226;-78
2022/10/28 02:39:07;;;;;;;8.68;3.95;;;20.50;99.90;;;;;;5028148;28;20195;-78
2022/10/28 02:41:41;;;;;;;7.05;3.35;;;20.50;99.90;;;;;;5025394;28;20228;-78
2022/10/28 02:44:12;;;;;;;7.70;3.90;;;20.50;99.90;;;;;;5023067;28;20207;-78
2022/10/28 02:46:43;;;;;;;5.05;3.13;;;20.40;99.90;;;;;;5026312;28;20223;-78
2022/10/28 02:49:14;;;;;;;8.43;3.10;;;20.50;99.90;;;;;;5026294;28;20199;-79
2022/10/28 02:51:45;;;;;;;7.63;3.30;;;20.50;99.90;;;;;;5023461;28;20199;-78
2022/10/28 02:54:16;;;;;;;7.88;3.67;;;20.40;99.90;;;;;;5024809;28;20203;-78
2022/10/28 02:56:51;;;;;;;5.47;2.67;;;20.40;99.90;;;;;;5019801;28;20219;-78
2022/10/28 02:59:18;;;;;;;7.88;3.28;;;20.30;99.90;;;;;;5031188;28;20199;-78
2022/10/28 03:01:46;;;;;;;7.28;3.40;;;20.30;99.90;;;;;;5016319;28;20556;-78
2022/10/28 03:04:14;;;;;;;8.38;3.50;;;20.30;99.90;;;;;;5022345;28;20658;-78
2022/10/28 03:06:42;;;;;;;12.30;4.38;;;20.30;99.90;;;;;;5026918;28;20680;-79
2022/10/28 03:09:09;;;;;;;8.93;3.53;;;20.30;99.90;;;;;;5024259;28;20677;-78
2022/10/28 03:11:37;;;;;;;5.78;3.53;;;20.20;99.90;;;;;;5029483;28;20202;-78
2022/10/28 03:14:04;;;;;;;6.63;3.33;;;20.20;99.90;;;;;;5027007;28;20199;-78
2022/10/28 03:16:31;;;;;;;6.75;3.47;;;20.20;99.90;;;;;;5028312;28;20218;-79
2022/10/28 03:18:59;;;;;;;7.63;3.63;;;20.20;99.90;;;;;;5027147;28;20199;-78
2022/10/28 03:21:28;;;;;;;6.53;3.92;;;20.20;99.90;;;;;;5028005;28;20708;-78
2022/10/28 03:23:55;;;;;;;6.35;3.53;;;20.20;99.90;;;;;;5030216;28;20664;-78
2022/10/28 03:26:23;;;;;;;6.40;3.75;;;20.20;99.90;;;;;;5029861;28;20235;-78
2022/10/28 03:28:50;;;;;;;10.55;4.18;;;20.20;99.90;;;;;;5029933;28;20206;-78
2022/10/28 03:31:18;;;;;;;8.27;3.75;;;20.20;99.90;;;;;;5030853;28;20194;-78
2022/10/28 03:33:45;;;;;;;6.35;3.40;;;20.20;99.90;;;;;;5024985;28;20203;-78
2022/10/28 03:36:13;;;;;;;6.13;3.13;;;20.20;99.90;;;;;;5030566;28;20720;-78
2022/10/28 03:38:41;;;;;;;6.63;3.40;;;20.20;99.90;;;;;;5031257;28;20195;-79
2022/10/28 03:41:09;;;;;;;5.85;3.50;;;20.20;99.90;;;;;;5030696;28;20208;-78
2022/10/28 03:43:37;;;;;;;5.50;3.38;;;20.20;99.90;;;;;;5028859;28;20230;-78
2022/10/28 03:46:05;;;;;;;8.38;3.42;;;20.10;99.90;;;;;;5030427;28;20695;-78
2022/10/28 03:48:32;;;;;;;7.07;3.70;;;20.10;99.90;;;;;;5027967;28;20190;-78
2022/10/28 03:51:00;;;;;;;10.20;3.45;;;20.10;99.90;;;;;;5030552;28;20213;-78
2022/10/28 03:53:27;;;;;;;9.15;3.17;;;20.20;99.90;;;;;;5030296;28;20199;-78
2022/10/28 03:55:57;;;;;;;9.38;4.05;;;20.20;99.90;;;;;;5031806;28;20215;-78
2022/10/28 03:58:30;;;;;;;7.15;3.40;;;20.10;99.90;;;;;;5028466;28;20202;-78
2022/10/28 04:00:58;;;;;;;6.45;3.42;;;20.20;99.90;;;;;;5026597;28;20227;-78
2022/10/28 04:03:26;;;;;;;7.22;3.88;;;20.20;99.90;;;;;;5029745;28;20969;-78
2022/10/28 04:05:57;;;;;;;7.65;3.25;;;20.20;99.90;;;;;;5023213;28;20227;-78
2022/10/28 04:08:24;;;;;;;10.20;3.42;;;20.10;99.90;;;;;;5023689;28;20680;-78
2022/10/28 04:10:56;;;;;;;7.95;3.95;;;20.10;99.90;;;;;;5044614;28;20215;-78
2022/10/28 04:13:26;;;;;;;8.93;3.65;;;20.10;99.90;;;;;;5029595;28;20206;-78
2022/10/28 04:15:54;;;;;;;10.05;3.67;;;20.00;99.90;;;;;;5029997;28;20215;-78
2022/10/28 04:18:21;;;;;;;7.53;3.08;;;20.00;99.90;;;;;;5031032;28;20560;-78
2022/10/28 04:20:49;;;;;;;7.63;3.40;;;20.00;99.90;;;;;;5028693;28;20223;-78
2022/10/28 04:23:18;;;;;;;10.13;4.13;;;20.00;99.90;;;;;;5032640;28;20207;-78
2022/10/28 04:25:45;;;;;;;8.30;3.40;;;19.90;99.90;;;;;;5035243;28;20218;-78
2022/10/28 04:28:14;;;;;;;10.00;3.72;;;19.90;99.90;;;;;;5035028;28;20206;-78
2022/10/28 04:30:41;;;;;;;7.18;3.78;;;19.90;99.90;;;;;;5029125;28;20200;-78
2022/10/28 04:33:11;;;;;;;9.93;3.60;;;19.90;99.90;;;;;;5032995;28;20210;-78
2022/10/28 04:35:41;;;;;;;9.07;3.63;;;19.90;99.90;;;;;;5033956;28;20235;-78
2022/10/28 04:38:09;;;;;;;8.98;3.88;;;19.90;99.90;;;;;;5035478;28;20207;-78
2022/10/28 04:40:36;;;;;;;6.68;4.00;;;19.90;99.90;;;;;;5030814;28;20219;-78
2022/10/28 04:43:07;;;;;;;9.82;3.78;;;19.90;99.90;;;;;;5033590;28;20273;-78
2022/10/28 04:45:35;;;;;;;6.97;3.45;;;19.80;99.90;;;;;;5038681;28;20221;-78
2022/10/28 04:48:03;;;;;;;7.35;3.75;;;19.80;99.90;;;;;;5037954;28;20214;-78
2022/10/28 04:50:30;;;;;;;10.80;3.55;;;19.80;99.90;;;;;;5027289;28;20202;-78
2022/10/28 04:52:58;;;;;;;7.72;3.25;;;19.80;99.90;;;;;;5032446;28;20204;-78
2022/10/28 04:55:25;;;;;;;8.40;3.88;;;19.80;99.90;;;;;;5034043;28;20207;-78
2022/10/28 04:57:54;;;;;;;5.55;3.25;;;19.80;99.90;;;;;;5052166;28;20680;-78
2022/10/28 05:00:22;;;;;;;8.80;3.33;;;19.80;99.90;;;;;;5031625;28;20199;-78
2022/10/28 05:02:51;;;;;;;10.93;3.90;;;19.80;99.90;;;;;;5037797;28;20255;-78
2022/10/28 05:05:19;;;;;;;7.15;3.63;;;19.70;99.90;;;;;;5033455;28;20199;-78
2022/10/28 05:07:46;;;;;;;10.80;4.05;;;19.70;99.90;;;;;;5034224;28;20203;-78
2022/10/28 05:10:16;;;;;;;7.75;3.88;;;19.70;99.90;;;;;;5034520;28;20222;-78
2022/10/28 05:12:44;;;;;;;7.72;3.80;;;19.70;99.90;;;;;;5031777;28;20195;-78
2022/10/28 05:15:13;;;;;;;10.18;3.72;;;19.70;99.90;;;;;;5029689;28;20554;-78
2022/10/28 05:17:42;;;;;;;11.18;3.80;;;19.70;99.90;;;;;;5032897;28;20219;-78
2022/10/28 05:20:12;;;;;;;7.97;3.42;;;19.70;99.90;;;;;;5030397;28;20657;-78
2022/10/28 05:22:45;;;;;;;9.85;3.67;;;19.70;99.90;;;;;;5048434;28;20219;-78
2022/10/28 05:25:13;;;;;;;8.55;3.85;;;19.70;99.90;;;;;;5030358;28;20210;-78
2022/10/28 05:27:44;;;;;;;8.35;3.53;;;19.70;99.90;;;;;;5033211;28;20227;-78
2022/10/28 05:30:13;;;;;;;10.40;4.43;;;19.70;99.90;;;;;;5033197;28;20203;-78
2022/10/28 05:32:40;;;;;;;10.60;3.72;;;19.70;99.90;;;;;;5030727;28;20583;-78
2022/10/28 05:35:09;;;;;;;7.57;3.63;;;19.70;99.90;;;;;;5027712;28;20575;-78
2022/10/28 05:37:38;;;;;;;9.30;3.90;;;19.70;99.90;;;;;;5025873;28;20222;-78
2022/10/28 05:40:48;;;;;;;11.52;3.90;;;19.70;99.90;;;;;;5030290;28;20198;-78
2022/10/28 05:43:16;;;;;;;5.60;3.65;;;19.70;99.90;;;;;;5031460;28;20430;-78
2022/10/28 05:45:44;;;;;;;5.70;3.55;;;19.70;99.90;;;;;;5026374;28;20231;-78
2022/10/28 05:48:11;;;;;;;10.13;4.40;;;19.70;99.90;;;;;;5027441;28;20207;-77
2022/10/28 05:50:38;;;;;;;8.10;3.75;;;19.60;99.90;;;;;;5037309;28;20199;-78
2022/10/28 05:53:16;;;;;;;5.90;3.47;;;19.60;99.90;;;;;;5024714;28;20210;-78
2022/10/28 05:55:43;;;;;;;11.32;3.72;;;19.60;99.90;;;;;;5023419;28;20250;-78
2022/10/28 05:58:26;;;;;;;10.05;4.18;;;19.60;99.90;;;;;;5026668;28;20195;-79
2022/10/28 06:00:53;;;;;;;9.73;4.10;;;19.60;99.90;;;;;;5030573;28;20202;-81
2022/10/28 06:03:21;;;;;;;8.07;4.20;;;19.60;99.90;;;;;;5036724;28;20194;-81
2022/10/28 06:05:48;;;;;;;8.73;4.55;;;19.60;99.90;;;;;;5053787;28;20720;-81
2022/10/28 06:08:17;;;;;;;8.82;4.53;;;19.60;99.90;;;;;;5038381;28;20200;-81
2022/10/28 06:10:51;;;;;;;5.47;3.80;;;19.60;99.90;;;;;;5033861;28;20199;-80
2022/10/28 06:13:18;;;;;;;10.90;4.20;;;19.50;99.90;;;;;;5036600;28;20191;-81
2022/10/28 06:15:51;;;;;;;9.95;4.47;;;19.60;99.90;;;;;;5049805;28;20226;-80
2022/10/28 06:18:18;;;;;;;7.63;4.20;;;19.50;99.90;;;;;;5041327;28;20199;-81
2022/10/28 06:20:52;;;;;;;7.75;4.15;;;19.50;99.90;;;;;;5036207;28;20195;-79
2022/10/28 06:23:23;;;;;;;12.63;5.03;;;19.50;99.90;;;;;;5041381;28;20219;-81
2022/10/28 06:25:55;;;;;;;26.33;8.60;;;19.70;99.90;;;;;;5040315;28;20222;-80
2022/10/28 06:28:30;;;;;;;28.98;8.88;;;19.70;99.90;;;;;;5030959;28;20203;-80
2022/10/28 06:31:07;;;;;;;8.95;4.90;;;19.70;99.90;;;;;;5034999;28;20190;-80
2022/10/28 06:33:36;;;;;;;15.95;5.95;;;19.70;99.90;;;;;;5030607;28;20202;-79
2022/10/28 06:36:34;;;;;;;14.70;5.35;;;19.70;99.90;;;;;;5049235;23;20242;-81
2022/10/28 06:39:29;;;;;;;11.73;4.88;;;19.70;99.90;;;;;;5027601;28;20286;-81
2022/10/28 06:41:59;;;;;;;13.20;4.70;;;19.70;99.90;;;;;;5038238;28;20222;-81
2022/10/28 06:44:27;;;;;;;9.88;4.63;;;19.70;99.90;;;;;;5047895;28;20218;-81
2022/10/28 06:46:55;;;;;;;11.23;4.63;;;19.60;99.90;;;;;;5037054;28;20227;-81
2022/10/28 06:49:25;;;;;;;8.23;4.15;;;19.60;99.90;;;;;;5027568;28;20216;-81
2022/10/28 06:51:53;;;;;;;10.48;4.60;;;19.60;99.90;;;;;;5024267;28;20214;-82
2022/10/28 06:54:22;;;;;;;8.43;4.65;;;19.60;99.90;;;;;;5025366;28;20202;-80
2022/10/28 06:56:49;;;;;;;11.57;4.20;;;19.60;99.90;;;;;;5028403;28;20219;-81
2022/10/28 06:59:17;;;;;;;9.60;4.03;;;19.60;99.90;;;;;;5030852;28;20199;-81
2022/10/28 07:01:44;;;;;;;8.50;4.40;;;19.60;99.90;;;;;;5026737;28;20207;-80
2022/10/28 07:04:12;;;;;;;12.48;4.70;;;19.60;99.90;;;;;;5025505;28;20199;-80
2022/10/28 07:06:43;;;;;;;10.73;4.28;;;19.60;99.90;;;;;;5035321;28;20234;-80
2022/10/28 07:09:14;;;;;;;10.95;4.53;;;19.50;99.90;;;;;;5032726;28;20209;-81
2022/10/28 07:11:43;;;;;;;10.32;4.03;;;19.50;99.90;;;;;;5031306;28;20199;-81
2022/10/28 07:14:11;;;;;;;13.05;4.53;;;19.40;99.90;;;;;;5023344;28;20208;-81
2022/10/28 07:16:38;;;;;;;8.20;4.35;;;19.40;99.90;;;;;;5045759;28;20229;-81
2022/10/28 07:19:06;;;;;;;9.38;4.55;;;19.40;99.90;;;;;;5027642;28;20210;-81
2022/10/28 07:21:33;;;;;;;9.60;4.47;;;19.40;99.90;;;;;;5053059;28;20206;-81
2022/10/28 07:24:01;;;;;;;9.10;4.18;;;19.50;99.90;;;;;;5028855;28;20223;-81
2022/10/28 07:26:28;;;;;;;7.18;4.60;;;19.50;99.90;;;;;;5027974;28;20227;-81
2022/10/28 07:28:57;;;;;;;10.68;4.15;;;19.50;99.90;;;;;;5022484;28;20198;-81
2022/10/28 07:31:26;;;;;;;9.00;4.07;;;19.50;99.90;;;;;;5038357;28;20210;-81
2022/10/28 07:33:54;;;;;;;10.07;4.57;;;19.50;99.90;;;;;;5020225;28;20191;-81
2022/10/28 07:36:22;;;;;;;7.40;3.88;;;19.60;99.90;;;;;;5028500;28;20309;-81
2022/10/28 07:38:50;;;;;;;12.35;4.57;;;19.60;99.90;;;;;;5027655;28;20215;-81
2022/10/28 07:41:19;;;;;;;10.30;4.95;;;19.70;99.90;;;;;;5024732;28;20199;-81
2022/10/28 07:43:47;;;;;;;6.25;4.15;;;19.70;99.90;;;;;;5017990;28;20220;-81
2022/10/28 07:46:17;;;;;;;9.10;3.90;;;19.80;99.90;;;;;;5017855;28;20226;-81
2022/10/28 07:48:45;;;;;;;10.90;4.70;;;19.80;99.90;;;;;;5021396;28;20200;-81
2022/10/28 07:51:14;;;;;;;9.73;4.18;;;19.80;99.90;;;;;;5035011;28;20662;-81
2022/10/28 07:53:42;;;;;;;6.30;4.25;;;19.80;99.90;;;;;;5013748;28;20211;-81
2022/10/28 07:56:12;;;;;;;7.63;3.83;;;19.80;99.90;;;;;;5045438;28;20222;-81
2022/10/28 07:58:41;;;;;;;11.15;4.65;;;19.90;99.90;;;;;;5021894;28;20203;-81
2022/10/28 08:01:16;;;;;;;9.80;4.53;;;19.90;99.90;;;;;;5036714;28;20199;-81
2022/10/28 08:03:46;;;;;;;8.27;4.15;;;19.90;99.90;;;;;;5027271;28;20213;-81
2022/10/28 08:06:16;;;;;;;9.00;4.57;;;20.00;99.90;;;;;;5030944;28;20571;-81
2022/10/28 08:08:48;;;;;;;10.15;3.95;;;20.00;99.90;;;;;;5023643;28;20200;-81
2022/10/28 08:11:18;;;;;;;8.77;3.90;;;20.00;99.90;;;;;;5025562;28;20191;-81
2022/10/28 08:13:46;;;;;;;8.23;5.03;;;20.00;99.90;;;;;;5026482;28;20203;-81
2022/10/28 08:16:18;;;;;;;7.20;4.10;;;20.00;99.90;;;;;;5023561;28;20234;-81
2022/10/28 08:18:45;;;;;;;7.95;3.70;;;20.00;99.90;;;;;;5027017;28;20195;-81
2022/10/28 08:21:14;;;;;;;8.30;4.63;;;20.00;99.90;;;;;;5014250;28;20227;-81
2022/10/28 08:23:45;;;;;;;11.05;4.18;;;20.00;99.90;;;;;;5027342;28;20223;-81
2022/10/28 08:26:13;;;;;;;8.20;4.07;;;20.00;99.90;;;;;;5025074;28;20220;-81
2022/10/28 08:28:41;;;;;;;12.43;4.60;;;20.00;99.90;;;;;;5027630;28;20190;-81
2022/10/28 08:31:11;;;;;;;8.43;4.30;;;20.00;99.90;;;;;;5038125;28;20202;-81
2022/10/28 08:33:43;;;;;;;9.23;4.00;;;20.00;99.90;;;;;;5029883;28;20214;-81
2022/10/28 08:36:12;;;;;;;12.00;4.22;;;20.00;99.90;;;;;;5037490;28;20223;-81
2022/10/28 08:38:40;;;;;;;9.50;4.13;;;20.00;99.90;;;;;;5035988;28;20203;-81
2022/10/28 08:41:19;;;;;;;12.23;4.43;;;20.00;99.90;;;;;;5037840;28;20199;-81
2022/10/28 08:43:59;;;;;;;13.25;4.57;;;20.10;99.90;;;;;;5038476;28;20581;-81
2022/10/28 08:46:38;;;;;;;10.23;4.10;;;20.10;99.90;;;;;;5050918;28;20212;-81
2022/10/28 08:49:12;;;;;;;6.93;3.85;;;20.20;99.90;;;;;;5022158;28;20191;-80
2022/10/28 08:51:49;;;;;;;8.63;4.40;;;20.20;99.90;;;;;;5024875;28;20203;-80
2022/10/28 08:54:20;;;;;;;13.38;4.50;;;20.20;99.90;;;;;;5048779;28;20199;-81
2022/10/28 08:56:53;;;;;;;8.30;4.15;;;20.20;99.90;;;;;;5039825;28;20224;-81
2022/10/28 08:59:27;;;;;;;9.10;4.55;;;20.30;99.90;;;;;;5026328;28;20209;-80
2022/10/28 09:01:59;;;;;;;13.35;4.68;;;20.30;99.90;;;;;;5027077;28;20668;-80
2022/10/28 09:04:35;;;;;;;8.57;4.57;;;20.40;99.90;;;;;;5027561;28;20215;-80
2022/10/28 09:07:04;;;;;;;8.18;4.00;;;20.40;99.90;;;;;;5014853;28;20237;-80
2022/10/28 09:09:32;;;;;;;12.93;4.68;;;20.50;99.90;;;;;;5018536;28;20204;-80
2022/10/28 09:12:24;;;;;;;10.30;4.05;;;20.60;99.90;;;;;;5056961;23;20214;-78
2022/10/28 09:15:22;;;;;;;7.13;4.13;;;20.70;99.90;;;;;;5046321;28;20191;-79
2022/10/28 09:17:53;;;;;;;6.90;4.15;;;20.80;99.90;;;;;;5047505;28;20198;-79
2022/10/28 09:20:50;;;;;;;13.07;4.22;;;20.80;99.90;;;;;;5052695;28;20194;-79
2022/10/28 09:23:22;;;;;;;9.55;4.53;;;20.90;99.90;;;;;;5048003;28;20221;-79
2022/10/28 09:26:01;;;;;;;8.30;3.97;;;20.90;99.90;;;;;;5056858;28;20563;-79
2022/10/28 09:28:43;;;;;;;10.95;4.28;;;21.00;99.90;;;;;;5068384;28;20206;-78
2022/10/28 09:31:17;;;;;;;7.93;4.22;;;21.00;99.90;;;;;;5054661;28;20222;-78
2022/10/28 09:33:58;;;;;;;10.77;4.97;;;21.10;99.90;;;;;;5052328;28;20201;-78
2022/10/28 09:36:32;;;;;;;14.50;4.15;;;21.30;99.90;;;;;;5055729;28;20203;-78
2022/10/28 09:39:03;;;;;;;11.05;4.05;;;21.40;99.90;;;;;;5050645;28;20202;-78
2022/10/28 09:41:33;;;;;;;6.47;3.78;;;21.50;99.90;;;;;;5049176;28;20226;-78
2022/10/28 09:44:10;;;;;;;12.45;4.75;;;21.60;99.90;;;;;;5062843;28;20221;-78
2022/10/28 09:46:53;;;;;;;8.48;4.50;;;21.70;99.90;;;;;;5048631;28;20221;-78
2022/10/28 09:49:25;;;;;;;9.45;4.35;;;21.80;99.90;;;;;;5047009;28;20199;-79
2022/10/28 09:52:01;;;;;;;12.93;4.30;;;21.90;99.90;;;;;;5051580;28;20222;-79
2022/10/28 09:54:34;;;;;;;11.90;4.68;;;22.10;99.90;;;;;;5052688;28;20205;-79
2022/10/28 09:57:02;;;;;;;10.63;4.18;;;22.20;99.90;;;;;;5055177;28;20191;-79
2022/10/28 09:59:33;;;;;;;9.85;3.92;;;22.30;99.90;;;;;;5048470;28;20206;-79
2022/10/28 10:02:03;;;;;;;9.35;3.95;;;22.40;99.90;;;;;;5050475;28;20211;-79
2022/10/28 10:04:31;;;;;;;10.25;4.15;;;22.40;99.90;;;;;;5053500;28;20218;-79
2022/10/28 10:07:05;;;;;;;7.35;3.80;;;22.50;99.90;;;;;;5053062;28;20446;-79
2022/10/28 10:09:34;;;;;;;9.60;3.80;;;22.50;99.90;;;;;;5054281;28;20202;-79
2022/10/28 10:12:07;;;;;;;6.25;3.47;;;22.50;99.70;;;;;;5062874;28;20242;-78
2022/10/28 10:14:39;;;;;;;10.77;4.63;;;22.60;99.10;;;;;;5053135;28;20651;-78
2022/10/28 10:17:39;;;;;;;9.10;3.65;;;22.60;98.90;;;;;;5058848;28;20190;-78
2022/10/28 10:20:08;;;;;;;8.02;3.35;;;22.70;98.70;;;;;;5053428;28;20205;-78
2022/10/28 10:22:39;;;;;;;12.35;4.30;;;22.80;98.30;;;;;;5053701;28;20221;-78
2022/10/28 10:25:28;;;;;;;14.02;4.75;;;22.90;98.00;;;;;;5053026;28;20211;-78
2022/10/28 10:28:01;;;;;;;12.13;4.63;;;23.10;97.10;;;;;;5053598;28;20202;-79
2022/10/28 10:30:32;;;;;;;10.60;4.60;;;23.10;97.40;;;;;;5053653;28;20206;-78
2022/10/28 10:33:01;;;;;;;10.77;3.92;;;23.30;97.40;;;;;;5045007;28;20198;-79
2022/10/28 10:35:30;;;;;;;13.90;4.20;;;23.30;96.80;;;;;;5051612;28;20680;-79
2022/10/28 10:38:01;;;;;;;9.55;4.53;;;23.40;96.70;;;;;;5047342;28;20562;-79
2022/10/28 10:40:31;;;;;;;8.27;4.07;;;23.50;96.20;;;;;;5049845;28;20567;-79
2022/10/28 10:43:23;;;;;;;7.85;3.88;;;23.40;96.80;;;;;;5051341;28;20205;-79
2022/10/28 10:45:58;;;;;;;9.05;3.85;;;23.30;96.70;;;;;;5051740;28;20195;-79
2022/10/28 10:48:26;;;;;;;10.35;4.22;;;23.40;96.00;;;;;;5040904;28;20193;-79
2022/10/28 10:50:55;;;;;;;10.70;3.95;;;23.40;96.00;;;;;;5051510;28;20217;-79
2022/10/28 10:53:30;;;;;;;5.75;3.28;;;23.60;95.60;;;;;;5052896;28;20205;-79
2022/10/28 10:56:00;;;;;;;10.50;4.05;;;23.70;95.60;;;;;;5052330;28;20198;-79
2022/10/28 10:58:31;;;;;;;14.50;4.13;;;23.80;94.90;;;;;;5053869;28;20554;-79
2022/10/28 11:01:01;;;;;;;12.52;4.07;;;23.80;94.80;;;;;;5043941;28;20230;-79
2022/10/28 11:03:31;;;;;;;6.05;3.90;;;23.90;94.70;;;;;;5051060;28;20548;-80
2022/10/28 11:06:00;;;;;;;7.30;4.25;;;23.60;94.80;;;;;;5045418;28;20202;-79
2022/10/28 11:08:35;;;;;;;11.63;4.28;;;23.60;95.10;;;;;;5052704;28;20209;-79
2022/10/28 11:11:21;;;;;;;10.50;3.97;;;23.60;94.70;;;;;;5044517;28;20230;-79
2022/10/28 11:14:03;;;;;;;9.50;4.28;;;23.60;94.90;;;;;;5055380;28;20208;-79
2022/10/28 11:16:30;;;;;;;11.80;4.05;;;23.90;94.40;;;;;;5053617;28;20198;-79
2022/10/28 11:18:58;;;;;;;10.60;3.78;;;24.00;94.90;;;;;;5052153;28;20202;-79
2022/10/28 11:21:43;;;;;;;8.65;4.00;;;24.10;94.50;;;;;;5052911;28;20210;-79
2022/10/28 11:24:30;;;;;;;10.35;3.75;;;24.00;93.90;;;;;;5037434;28;20214;-79
2022/10/28 11:27:08;;;;;;;11.80;4.07;;;24.10;93.50;;;;;;5047749;28;20548;-79
2022/10/28 11:29:36;;;;;;;7.95;3.55;;;24.00;94.10;;;;;;5039531;28;20683;-79
2022/10/28 11:32:18;;;;;;;8.45;4.07;;;24.10;93.70;;;;;;5052354;28;20222;-79
2022/10/28 11:35:03;;;;;;;13.07;4.18;;;24.30;93.60;;;;;;5048219;28;20202;-79
2022/10/28 11:37:44;;;;;;;8.90;4.05;;;24.40;93.40;;;;;;5048482;28;20206;-79
2022/10/28 11:40:31;;;;;;;11.55;4.13;;;24.50;93.00;;;;;;5039164;28;20194;-79
2022/10/28 11:43:22;;;;;;;13.25;4.20;;;24.30;93.20;;;;;;5061382;28;20541;-79
2022/10/28 11:45:59;;;;;;;10.25;4.43;;;24.50;93.10;;;;;;5053984;28;20213;-82
2022/10/28 11:48:43;;;;;;;9.85;4.40;;;24.80;92.50;;;;;;5042135;28;20201;-79
2022/10/28 11:51:23;;;;;;;9.05;3.97;;;24.80;92.10;;;;;;5045516;28;20683;-79
2022/10/28 11:54:20;;;;;;;9.70;4.15;;;24.80;92.00;;;;;;5049580;28;20201;-79
2022/10/28 11:56:54;;;;;;;12.05;4.10;;;24.80;91.70;;;;;;5059435;28;20194;-79
2022/10/28 11:59:55;;;;;;;8.25;4.10;;;24.90;91.90;;;;;;5052787;28;20190;-79
2022/10/28 12:02:45;;;;;;;10.38;3.92;;;24.80;91.70;;;;;;5043269;28;20214;-79
2022/10/28 12:05:19;;;;;;;10.50;3.92;;;24.70;91.80;;;;;;5051015;28;20215;-79
2022/10/28 12:08:13;;;;;;;9.70;3.83;;;24.90;91.90;;;;;;5052359;28;20197;-79
2022/10/28 12:11:02;;;;;;;11.57;3.63;;;24.90;91.70;;;;;;5050712;28;20236;-79
2022/10/28 12:13:38;;;;;;;7.43;3.30;;;25.20;91.20;;;;;;5049040;28;20207;-79
2022/10/28 12:16:12;;;;;;;10.23;4.30;;;25.40;90.80;;;;;;5052344;28;20194;-79
2022/10/28 12:18:47;;;;;;;12.73;3.97;;;25.40;90.60;;;;;;5053570;28;20206;-79
2022/10/28 12:21:22;;;;;;;10.90;4.00;;;25.70;90.30;;;;;;5036684;28;20214;-79
2022/10/28 12:23:50;;;;;;;11.57;4.20;;;25.90;90.00;;;;;;5052659;28;20206;-77
2022/10/28 12:26:20;;;;;;;8.85;4.07;;;25.40;90.30;;;;;;5047785;28;20230;-78
2022/10/28 12:28:55;;;;;;;6.43;4.10;;;25.60;89.80;;;;;;5051203;28;20297;-78
2022/10/28 12:31:26;;;;;;;13.13;4.45;;;25.90;89.40;;;;;;5051574;28;20217;-78
2022/10/28 12:33:58;;;;;;;8.52;3.83;;;25.90;88.70;;;;;;5051871;28;20194;-78
2022/10/28 12:36:34;;;;;;;10.48;4.78;;;26.20;87.40;;;;;;5051419;28;20198;-78
2022/10/28 12:39:06;;;;;;;8.82;3.97;;;26.10;87.60;;;;;;5065068;28;20678;-78
2022/10/28 12:41:46;;;;;;;7.00;3.53;;;26.10;86.60;;;;;;5054510;28;20222;-78
2022/10/28 12:44:19;;;;;;;10.63;3.90;;;25.70;88.90;;;;;;5048769;28;20201;-78
2022/10/28 12:46:55;;;;;;;11.27;4.07;;;25.90;87.60;;;;;;5053438;28;20210;-78
2022/10/28 12:49:35;;;;;;;8.30;3.63;;;25.90;88.00;;;;;;5053953;28;20667;-77
2022/10/28 12:52:13;;;;;;;10.55;4.03;;;25.90;87.60;;;;;;5055528;28;20230;-78
2022/10/28 12:54:51;;;;;;;9.90;4.20;;;26.00;87.90;;;;;;5052378;28;20206;-78
2022/10/28 12:57:22;;;;;;;11.43;4.22;;;25.80;86.60;;;;;;5061327;28;20203;-78
2022/10/28 12:59:57;;;;;;;11.93;4.10;;;25.90;86.90;;;;;;5054655;28;20201;-78
2022/10/28 13:02:30;;;;;;;12.05;4.22;;;25.60;87.10;;;;;;5066705;28;20695;-78
2022/10/28 13:04:58;;;;;;;8.88;3.97;;;25.80;86.80;;;;;;5063464;28;20209;-78
2022/10/28 13:07:51;;;;;;;12.25;4.30;;;25.80;86.20;;;;;;5055601;28;20197;-78
2022/10/28 13:10:30;;;;;;;9.50;3.90;;;26.00;85.80;;;;;;5048718;28;20644;-78
2022/10/28 13:13:32;;;;;;;8.75;3.90;;;26.40;85.50;;;;;;5054450;28;20205;-78